createdAt,value
2023-01-09T00:01:37.909Z,7.14
2023-01-09T00:04:06.419Z,7.19
2023-01-09T00:06:33.633Z,7.18
2023-01-09T00:09:00.339Z,7.19
2023-01-09T00:11:27.400Z,7.18
2023-01-09T00:13:54.336Z,7.15
2023-01-09T00:16:21.303Z,7.13
2023-01-09T00:18:48.136Z,7.16
2023-01-09T00:21:16.605Z,7.07
2023-01-09T00:23:43.475Z,6.96
2023-01-09T00:26:15.312Z,6.87
2023-01-09T00:28:42.119Z,6.81
2023-01-09T00:31:09.748Z,6.72
2023-01-09T00:33:39.521Z,6.61
2023-01-09T00:36:07.102Z,6.49
2023-01-09T00:38:35.346Z,6.41
2023-01-09T00:41:02.257Z,6.29
2023-01-09T00:43:32.907Z,6.22
2023-01-09T00:46:01.826Z,6.09
2023-01-09T00:48:28.721Z,5.99
2023-01-09T00:50:58.459Z,5.90
2023-01-09T00:53:27.674Z,5.84
2023-01-09T00:55:59.321Z,5.77
2023-01-09T00:58:26.161Z,5.74
2023-01-09T01:00:53.006Z,5.70
2023-01-09T01:03:19.776Z,5.71
2023-01-09T01:05:46.480Z,5.66
2023-01-09T01:08:14.182Z,5.66
2023-01-09T01:10:41.561Z,5.66
2023-01-09T01:13:10.621Z,5.58
2023-01-09T01:15:38.858Z,5.52
2023-01-09T01:18:05.947Z,5.49
2023-01-09T01:20:32.814Z,5.40
2023-01-09T01:22:59.630Z,5.28
2023-01-09T01:25:26.472Z,5.15
2023-01-09T01:27:53.236Z,5.10
2023-01-09T01:30:21.383Z,5.07
2023-01-09T01:32:48.277Z,5.00
2023-01-09T01:35:15.153Z,4.94
2023-01-09T01:37:42.121Z,4.95
2023-01-09T01:40:10.869Z,4.93
2023-01-09T01:42:37.972Z,4.93
2023-01-09T01:45:10.392Z,4.84
2023-01-09T01:47:46.099Z,4.88
2023-01-09T01:50:21.125Z,4.88
2023-01-09T01:52:54.339Z,4.86
2023-01-09T01:55:21.517Z,4.79
2023-01-09T01:57:52.564Z,4.70
2023-01-09T02:00:22.992Z,4.72
2023-01-09T02:02:51.269Z,4.74
2023-01-09T02:05:19.018Z,4.75
2023-01-09T02:07:45.737Z,4.81
2023-01-09T02:10:12.578Z,4.86
2023-01-09T02:12:39.342Z,4.89
2023-01-09T02:15:09.086Z,4.85
2023-01-09T02:17:44.097Z,4.83
2023-01-09T02:20:44.103Z,4.87
2023-01-09T02:23:46.428Z,4.91
2023-01-09T02:26:34.631Z,4.99
2023-01-09T02:29:32.166Z,5.10
2023-01-09T02:32:07.418Z,5.21
2023-01-09T02:34:41.977Z,5.27
2023-01-09T02:37:16.225Z,5.22
2023-01-09T02:39:51.020Z,5.19
2023-01-09T02:42:21.343Z,5.22
2023-01-09T02:44:48.383Z,5.26
2023-01-09T02:47:38.667Z,5.33
2023-01-09T02:50:09.980Z,5.29
2023-01-09T02:52:52.179Z,5.24
2023-01-09T02:55:28.187Z,5.16
2023-01-09T02:58:07.392Z,5.17
2023-01-09T03:00:41.333Z,5.12
2023-01-09T03:03:12.972Z,5.12
2023-01-09T03:05:44.039Z,5.07
2023-01-09T03:08:16.186Z,5.06
2023-01-09T03:10:48.565Z,5.00
2023-01-09T03:13:19.320Z,4.99
2023-01-09T03:15:49.201Z,4.98
2023-01-09T03:18:22.075Z,4.98
2023-01-09T03:20:51.323Z,4.96
2023-01-09T03:23:18.070Z,4.89
2023-01-09T03:25:44.728Z,4.87
2023-01-09T03:28:22.969Z,4.86
2023-01-09T03:30:49.743Z,4.83
2023-01-09T03:33:17.801Z,4.82
2023-01-09T03:35:44.505Z,4.82
2023-01-09T03:38:11.500Z,4.89
2023-01-09T03:40:38.219Z,4.79
2023-01-09T03:43:04.987Z,4.88
2023-01-09T03:45:31.675Z,4.91
2023-01-09T03:47:58.424Z,4.92
2023-01-09T03:50:26.547Z,4.92
2023-01-09T03:52:53.309Z,4.97
2023-01-09T03:55:20.338Z,4.95
2023-01-09T03:57:47.015Z,4.90
2023-01-09T04:00:14.506Z,4.96
2023-01-09T04:02:41.311Z,4.99
2023-01-09T04:05:08.525Z,4.96
2023-01-09T04:07:36.748Z,4.94
2023-01-09T04:10:04.337Z,4.93
2023-01-09T04:12:31.098Z,4.90
2023-01-09T04:14:57.967Z,4.87
2023-01-09T04:17:24.717Z,4.89
2023-01-09T04:19:51.495Z,4.82
2023-01-09T04:22:18.314Z,4.81
2023-01-09T04:24:46.477Z,4.87
2023-01-09T04:27:13.234Z,4.84
2023-01-09T04:29:40.363Z,4.79
2023-01-09T04:32:07.010Z,4.82
2023-01-09T04:34:33.823Z,4.87
2023-01-09T04:37:00.540Z,4.85
2023-01-09T04:39:27.301Z,4.82
2023-01-09T04:41:55.464Z,4.79
2023-01-09T04:44:23.725Z,4.79
2023-01-09T04:46:50.418Z,4.75
2023-01-09T04:49:17.061Z,4.76
2023-01-09T04:51:44.398Z,4.70
2023-01-09T04:54:11.227Z,4.71
2023-01-09T04:56:38.417Z,4.68
2023-01-09T04:59:07.209Z,4.68
2023-01-09T05:01:34.014Z,4.61
2023-01-09T05:04:01.575Z,4.56
2023-01-09T05:06:28.524Z,4.68
2023-01-09T05:08:55.303Z,4.67
2023-01-09T05:11:22.211Z,4.64
2023-01-09T05:13:49.091Z,4.61
2023-01-09T05:16:17.270Z,4.65
2023-01-09T05:18:44.293Z,4.56
2023-01-09T05:21:11.423Z,4.63
2023-01-09T05:23:38.260Z,4.62
2023-01-09T05:26:05.247Z,4.61
2023-01-09T05:28:32.378Z,4.62
2023-01-09T05:30:59.496Z,4.61
2023-01-09T05:33:27.640Z,4.63
2023-01-09T05:35:54.347Z,4.65
2023-01-09T05:38:21.145Z,4.69
2023-01-09T05:40:47.882Z,4.69
2023-01-09T05:43:14.565Z,4.71
2023-01-09T05:45:41.807Z,4.72
2023-01-09T05:48:08.598Z,4.70
2023-01-09T05:50:36.864Z,4.72
2023-01-09T05:53:03.775Z,4.85
2023-01-09T05:55:30.662Z,4.95
2023-01-09T05:57:57.797Z,5.05
2023-01-09T06:00:24.582Z,5.05
2023-01-09T06:02:51.731Z,5.08
2023-01-09T06:05:18.867Z,5.08
2023-01-09T06:07:47.209Z,5.15
2023-01-09T06:10:15.705Z,5.23
2023-01-09T06:12:46.287Z,5.20
2023-01-09T06:15:13.136Z,5.21
2023-01-09T06:17:39.996Z,5.22
2023-01-09T06:20:07.931Z,5.24
2023-01-09T06:22:35.043Z,5.24
2023-01-09T06:25:03.985Z,5.30
2023-01-09T06:27:30.903Z,5.33
2023-01-09T06:29:57.707Z,5.36
2023-01-09T06:32:24.446Z,5.38
2023-01-09T06:34:51.168Z,5.42
2023-01-09T06:37:17.918Z,5.42
2023-01-09T06:39:44.742Z,5.46
2023-01-09T06:42:13.277Z,5.46
2023-01-09T06:44:39.982Z,5.49
2023-01-09T06:47:06.790Z,5.51
2023-01-09T06:49:33.629Z,5.55
2023-01-09T06:52:00.356Z,5.55
2023-01-09T06:54:28.707Z,5.57
2023-01-09T06:56:55.563Z,5.61
2023-01-09T06:59:23.687Z,5.66
2023-01-09T07:01:50.521Z,5.64
2023-01-09T07:04:17.320Z,5.69
2023-01-09T07:06:47.174Z,5.70
2023-01-09T07:09:14.107Z,5.74
2023-01-09T07:11:41.429Z,5.72
2023-01-09T07:14:08.257Z,5.70
2023-01-09T07:16:36.375Z,5.69
2023-01-09T07:19:03.248Z,5.66
2023-01-09T07:21:32.604Z,5.65
2023-01-09T07:23:59.730Z,5.63
2023-01-09T07:26:26.629Z,5.61
2023-01-09T07:28:53.624Z,5.60
2023-01-09T07:31:20.492Z,5.59
2023-01-09T07:33:48.547Z,5.58
2023-01-09T07:36:15.694Z,5.58
2023-01-09T07:38:42.460Z,5.56
2023-01-09T07:41:09.446Z,5.56
2023-01-09T07:43:36.705Z,5.54
2023-01-09T07:46:03.714Z,5.54
2023-01-09T07:48:30.633Z,5.57
2023-01-09T07:50:58.997Z,5.60
2023-01-09T07:53:25.767Z,5.57
2023-01-09T07:55:52.561Z,5.62
2023-01-09T07:58:19.270Z,5.60
2023-01-09T08:00:46.029Z,5.63
2023-01-09T08:03:12.775Z,5.64
2023-01-09T08:05:39.515Z,5.65
2023-01-09T08:08:07.940Z,5.69
2023-01-09T08:10:34.928Z,5.70
2023-01-09T08:13:01.692Z,5.68
2023-01-09T08:15:28.605Z,5.71
2023-01-09T08:17:55.754Z,5.73
2023-01-09T08:20:22.600Z,5.75
2023-01-09T08:22:49.483Z,5.80
2023-01-09T08:25:18.169Z,5.84
2023-01-09T08:27:45.070Z,5.84
2023-01-09T08:30:12.754Z,5.87
2023-01-09T08:32:40.142Z,5.92
2023-01-09T08:35:07.962Z,5.97
2023-01-09T08:37:34.786Z,6.01
2023-01-09T08:40:01.737Z,6.07
2023-01-09T08:42:30.077Z,6.11
2023-01-09T08:44:56.863Z,6.20
2023-01-09T08:47:25.912Z,6.27
2023-01-09T08:49:52.838Z,6.35
2023-01-09T08:52:19.951Z,6.37
2023-01-09T08:54:46.856Z,6.36
2023-01-09T08:57:13.670Z,6.30
2023-01-09T08:59:41.804Z,6.30
2023-01-09T09:02:09.297Z,6.27
2023-01-09T09:04:36.131Z,6.34
2023-01-09T09:07:03.105Z,6.37
2023-01-09T09:09:29.879Z,6.32
2023-01-09T09:11:56.647Z,6.36
2023-01-09T09:14:25.504Z,6.31
2023-01-09T09:16:54.321Z,6.40
2023-01-09T09:19:21.509Z,6.37
2023-01-09T09:21:48.359Z,6.27
2023-01-09T09:24:15.399Z,6.41
2023-01-09T09:26:44.486Z,6.40
2023-01-09T09:29:11.902Z,6.42
2023-01-09T09:31:39.134Z,6.36
2023-01-09T09:34:08.400Z,6.42
2023-01-09T09:36:35.460Z,6.41
2023-01-09T09:39:02.446Z,6.49
2023-01-09T09:41:47.897Z,6.54
2023-01-09T09:44:29.825Z,6.52
2023-01-09T09:47:05.063Z,6.53
2023-01-09T09:49:46.547Z,6.53
2023-01-09T09:52:16.333Z,6.45
2023-01-09T09:54:49.481Z,6.38
2023-01-09T09:57:19.965Z,6.37
2023-01-09T09:59:48.839Z,6.32
2023-01-09T10:02:25.827Z,6.21
2023-01-09T10:05:00.355Z,6.18
2023-01-09T10:07:33.101Z,6.19
2023-01-09T10:10:01.806Z,6.19
2023-01-09T10:12:31.476Z,6.22
2023-01-09T10:14:59.288Z,6.28
2023-01-09T10:17:51.314Z,6.30
2023-01-09T10:20:48.643Z,6.31
2023-01-09T10:23:29.536Z,6.40
2023-01-09T10:26:01.156Z,6.40
2023-01-09T10:28:46.497Z,6.46
2023-01-09T10:31:22.583Z,6.47
2023-01-09T10:34:00.766Z,6.51
2023-01-09T10:36:46.836Z,6.54
2023-01-09T10:39:20.665Z,6.55
2023-01-09T10:41:57.098Z,6.62
2023-01-09T10:44:29.803Z,6.60
2023-01-09T10:47:00.071Z,6.73
2023-01-09T10:49:27.519Z,6.73
2023-01-09T10:52:12.688Z,6.73
2023-01-09T10:54:47.465Z,6.78
2023-01-09T10:57:19.412Z,6.76
2023-01-09T10:59:46.303Z,6.82
2023-01-09T11:02:27.375Z,6.92
2023-01-09T11:04:54.233Z,7.03
2023-01-09T11:07:26.952Z,7.25
2023-01-09T11:09:59.619Z,7.93
2023-01-09T11:12:28.171Z,8.40
2023-01-09T11:14:55.148Z,9.11
2023-01-09T11:17:26.967Z,9.34
2023-01-09T11:20:05.306Z,9.81
2023-01-09T11:22:44.076Z,9.66
2023-01-09T11:25:13.034Z,10.04
2023-01-09T11:27:39.726Z,10.31
2023-01-09T11:30:21.296Z,9.92
2023-01-09T11:32:48.515Z,10.14
2023-01-09T11:35:18.457Z,9.83
2023-01-09T11:37:49.344Z,9.88
2023-01-09T11:40:19.184Z,9.70
2023-01-09T11:43:03.880Z,10.31
2023-01-09T11:45:34.143Z,10.33
2023-01-09T11:48:00.971Z,9.92
2023-01-09T11:50:29.803Z,9.80
2023-01-09T11:53:13.593Z,10.02
2023-01-09T11:55:42.891Z,10.12
2023-01-09T11:58:13.999Z,9.64
2023-01-09T12:00:54.112Z,9.45
2023-01-09T12:03:32.171Z,9.30
2023-01-09T12:06:10.884Z,9.03
2023-01-09T12:08:55.617Z,9.14
2023-01-09T12:11:32.161Z,8.96
2023-01-09T12:14:09.273Z,8.79
2023-01-09T12:16:44.525Z,8.60
2023-01-09T12:19:23.837Z,8.50
2023-01-09T12:22:02.116Z,8.46
2023-01-09T12:24:54.649Z,8.56
2023-01-09T12:27:33.010Z,8.37
2023-01-09T12:30:25.389Z,8.30
2023-01-09T12:33:12.668Z,8.25
2023-01-09T12:35:42.557Z,8.12
2023-01-09T12:38:20.563Z,8.15
2023-01-09T12:41:08.141Z,8.30
2023-01-09T12:43:44.204Z,8.31
2023-01-09T12:46:16.409Z,8.45
2023-01-09T12:49:16.078Z,8.39
2023-01-09T12:51:47.588Z,8.27
2023-01-09T12:54:24.005Z,8.04
2023-01-09T12:56:56.115Z,8.14
2023-01-09T12:59:31.390Z,8.27
2023-01-09T13:02:11.193Z,8.31
2023-01-09T13:04:44.285Z,8.30
2023-01-09T13:07:17.397Z,8.13
2023-01-09T13:09:49.561Z,7.94
2023-01-09T13:12:19.946Z,7.88
2023-01-09T13:14:53.230Z,7.88
2023-01-09T13:17:25.366Z,7.67
2023-01-09T13:19:52.316Z,7.44
2023-01-09T13:22:19.658Z,7.48
2023-01-09T13:25:02.973Z,7.56
2023-01-09T13:27:34.839Z,7.67
2023-01-09T13:30:16.468Z,7.73
2023-01-09T13:32:53.198Z,7.83
2023-01-09T13:35:20.161Z,7.90
2023-01-09T13:37:52.136Z,8.07
2023-01-09T13:40:29.547Z,8.21
2023-01-09T13:43:02.179Z,8.40
2023-01-09T13:45:31.297Z,8.54
2023-01-09T13:48:18.053Z,8.60
2023-01-09T13:50:46.423Z,8.53
2023-01-09T13:53:44.180Z,8.42
2023-01-09T13:56:11.429Z,8.28
2023-01-09T13:59:03.203Z,8.17
2023-01-09T14:01:43.849Z,7.99
2023-01-09T14:04:43.122Z,7.94
2023-01-09T14:07:16.034Z,7.89
2023-01-09T14:09:47.121Z,7.94
2023-01-09T14:12:16.278Z,7.96
2023-01-09T14:14:46.396Z,8.00
2023-01-09T14:17:18.885Z,7.96
2023-01-09T14:19:45.882Z,8.00
2023-01-09T14:22:25.627Z,8.13
2023-01-09T14:24:52.957Z,8.08
2023-01-09T14:27:51.136Z,8.02
2023-01-09T14:30:32.012Z,7.89
2023-01-09T14:33:01.388Z,7.93
2023-01-09T14:35:37.147Z,7.92
2023-01-09T14:38:20.004Z,7.85
2023-01-09T14:40:52.105Z,7.79
2023-01-09T14:43:26.924Z,7.73
2023-01-09T14:45:59.375Z,7.58
2023-01-09T14:48:26.632Z,7.53
2023-01-09T14:50:58.608Z,7.43
2023-01-09T14:53:30.540Z,7.41
2023-01-09T14:55:58.719Z,7.40
2023-01-09T14:58:27.162Z,7.48
2023-01-09T15:01:00.703Z,7.63
2023-01-09T15:03:34.696Z,7.71
2023-01-09T15:06:01.548Z,7.69
2023-01-09T15:08:29.308Z,7.63
2023-01-09T15:10:58.144Z,7.58
2023-01-09T15:13:34.058Z,7.57
2023-01-09T15:16:05.882Z,7.55
2023-01-09T15:18:41.026Z,7.54
2023-01-09T15:21:17.475Z,7.54
2023-01-09T15:23:44.313Z,7.51
2023-01-09T15:26:23.289Z,7.47
2023-01-09T15:28:52.544Z,7.46
2023-01-09T15:31:24.112Z,7.48
2023-01-09T15:33:53.954Z,7.43
2023-01-09T15:36:22.878Z,7.36
2023-01-09T15:38:51.342Z,7.28
2023-01-09T15:41:23.901Z,7.28
2023-01-09T15:43:50.862Z,7.22
2023-01-09T15:46:17.609Z,7.13
2023-01-09T15:48:45.796Z,7.07
2023-01-09T15:51:15.278Z,7.01
2023-01-09T15:53:43.098Z,7.00
2023-01-09T15:56:18.504Z,7.03
2023-01-09T15:58:46.769Z,7.11
2023-01-09T16:01:25.067Z,7.17
2023-01-09T16:03:55.969Z,7.09
2023-01-09T16:06:26.177Z,6.96
2023-01-09T16:08:54.499Z,6.84
2023-01-09T16:11:23.899Z,6.68
2023-01-09T16:13:51.580Z,6.65
2023-01-09T16:16:26.171Z,6.60
2023-01-09T16:18:55.960Z,6.58
2023-01-09T16:21:30.716Z,6.58
2023-01-09T16:23:58.749Z,6.55
2023-01-09T16:26:28.528Z,6.56
2023-01-09T16:28:55.237Z,6.55
2023-01-09T16:31:25.333Z,6.55
2023-01-09T16:33:59.225Z,6.54
2023-01-09T16:36:27.908Z,6.52
2023-01-09T16:38:54.717Z,6.56
2023-01-09T16:41:22.122Z,6.56
2023-01-09T16:43:50.072Z,6.56
2023-01-09T16:46:19.395Z,6.55
2023-01-09T16:48:46.428Z,6.54
2023-01-09T16:51:17.579Z,6.56
2023-01-09T16:53:44.821Z,6.58
2023-01-09T16:56:18.434Z,6.60
2023-01-09T16:58:45.581Z,6.53
2023-01-09T17:01:12.435Z,6.51
2023-01-09T17:03:41.609Z,6.51
2023-01-09T17:06:15.069Z,6.50
2023-01-09T17:08:43.249Z,6.49
2023-01-09T17:11:18.887Z,6.50
2023-01-09T17:13:45.582Z,6.49
2023-01-09T17:16:12.846Z,6.47
2023-01-09T17:18:39.577Z,6.52
2023-01-09T17:21:06.385Z,6.53
2023-01-09T17:23:33.165Z,6.53
2023-01-09T17:26:01.476Z,6.54
2023-01-09T17:28:29.892Z,6.59
2023-01-09T17:30:56.648Z,6.52
2023-01-09T17:33:23.398Z,6.46
2023-01-09T17:35:50.113Z,6.43
2023-01-09T17:38:17.013Z,6.43
2023-01-09T17:40:44.922Z,6.46
2023-01-09T17:43:13.333Z,6.48
2023-01-09T17:45:41.491Z,6.43
2023-01-09T17:48:14.304Z,6.42
2023-01-09T17:50:41.048Z,6.38
2023-01-09T17:53:07.829Z,6.29
2023-01-09T17:55:35.605Z,6.15
2023-01-09T17:58:02.431Z,6.04
2023-01-09T18:00:33.079Z,5.99
2023-01-09T18:02:59.941Z,5.94
2023-01-09T18:05:26.785Z,5.94
2023-01-09T18:07:53.938Z,5.92
2023-01-09T18:10:23.169Z,5.94
2023-01-09T18:12:50.769Z,5.91
2023-01-09T18:15:17.810Z,5.85
2023-01-09T18:17:46.398Z,5.91
2023-01-09T18:20:13.315Z,5.98
2023-01-09T18:22:40.193Z,6.09
2023-01-09T18:25:07.798Z,6.21
2023-01-09T18:27:36.066Z,6.33
2023-01-09T18:30:05.428Z,6.34
2023-01-09T18:32:32.568Z,6.36
2023-01-09T18:35:01.026Z,6.34
2023-01-09T18:37:28.207Z,6.37
2023-01-09T18:39:54.943Z,6.42
2023-01-09T18:42:21.718Z,6.48
2023-01-09T18:44:48.399Z,6.73
2023-01-09T18:47:15.131Z,6.69
2023-01-09T18:49:42.008Z,6.71
2023-01-09T18:52:10.152Z,6.79
2023-01-09T18:54:36.862Z,6.82
2023-01-09T18:57:04.574Z,6.82
2023-01-09T18:59:31.497Z,6.68
2023-01-09T19:02:00.235Z,6.63
2023-01-09T19:04:28.239Z,6.58
2023-01-09T19:06:55.148Z,6.60
2023-01-09T19:09:23.231Z,6.73
2023-01-09T19:11:50.038Z,6.68
2023-01-09T19:14:16.969Z,6.72
2023-01-09T19:16:43.834Z,6.77
2023-01-09T19:19:10.647Z,6.83
2023-01-09T19:21:37.426Z,6.96
2023-01-09T19:24:05.231Z,6.92
2023-01-09T19:26:33.505Z,6.92
2023-01-09T19:29:00.632Z,6.88
2023-01-09T19:31:28.930Z,6.96
2023-01-09T19:33:56.678Z,7.01
2023-01-09T19:36:23.373Z,7.02
2023-01-09T19:38:55.615Z,7.04
2023-01-09T19:41:22.292Z,7.06
2023-01-09T19:43:50.782Z,7.05
2023-01-09T19:46:19.768Z,7.07
2023-01-09T19:48:47.123Z,6.99
2023-01-09T19:51:15.175Z,6.90
2023-01-09T19:53:42.520Z,7.04
2023-01-09T19:56:11.353Z,7.00
2023-01-09T19:58:38.675Z,6.92
2023-01-09T20:01:08.680Z,6.88
2023-01-09T20:03:35.768Z,6.96
2023-01-09T20:06:03.885Z,7.08
2023-01-09T20:08:31.240Z,7.08
2023-01-09T20:11:02.366Z,7.06
2023-01-09T20:13:29.617Z,7.10
2023-01-09T20:15:58.294Z,7.11
2023-01-09T20:18:26.790Z,7.17
2023-01-09T20:20:56.139Z,7.13
2023-01-09T20:23:24.538Z,7.11
2023-01-09T20:25:51.339Z,7.09
2023-01-09T20:28:18.069Z,7.04
2023-01-09T20:30:46.372Z,7.14
2023-01-09T20:33:13.685Z,7.22
2023-01-09T20:35:42.377Z,7.29
2023-01-09T20:38:09.462Z,7.31
2023-01-09T20:40:37.253Z,7.28
2023-01-09T20:43:04.802Z,7.31
2023-01-09T20:45:34.077Z,7.23
2023-01-09T20:48:00.919Z,7.20
2023-01-09T20:50:28.192Z,7.11
2023-01-09T20:52:56.374Z,7.05
2023-01-09T20:55:23.235Z,7.03
2023-01-09T20:57:50.027Z,6.88
2023-01-09T21:00:17.367Z,6.70
2023-01-09T21:02:44.303Z,6.66
2023-01-09T21:05:11.060Z,6.76
2023-01-09T21:07:37.783Z,6.90
2023-01-09T21:10:07.777Z,6.89
2023-01-09T21:12:34.531Z,6.83
2023-01-09T21:15:02.366Z,6.89
2023-01-09T21:17:29.391Z,6.90
2023-01-09T21:19:56.207Z,6.82
2023-01-09T21:22:23.337Z,6.69
2023-01-09T21:24:50.699Z,6.68
2023-01-09T21:27:19.455Z,6.68
2023-01-09T21:29:46.177Z,6.57
2023-01-09T21:32:13.137Z,6.57
2023-01-09T21:34:39.955Z,6.58
2023-01-09T21:37:06.761Z,6.44
2023-01-09T21:39:33.729Z,6.52
2023-01-09T21:42:00.532Z,6.44
2023-01-09T21:44:28.889Z,6.32
2023-01-09T21:46:55.727Z,6.17
2023-01-09T21:49:23.686Z,6.14
2023-01-09T21:51:50.388Z,6.04
2023-01-09T21:54:17.122Z,6.04
2023-01-09T21:56:43.874Z,6.35
2023-01-09T21:59:11.001Z,6.36
2023-01-09T22:01:39.238Z,6.46
2023-01-09T22:04:06.077Z,6.53
2023-01-09T22:06:34.528Z,6.67
2023-01-09T22:09:01.264Z,6.67
2023-01-09T22:11:28.106Z,6.64
2023-01-09T22:13:54.914Z,6.63
2023-01-09T22:16:21.703Z,6.67
2023-01-09T22:18:49.855Z,6.61
2023-01-09T22:21:16.627Z,6.64
2023-01-09T22:23:43.476Z,6.45
2023-01-09T22:26:11.905Z,6.37
2023-01-09T22:28:39.162Z,6.43
2023-01-09T22:31:08.772Z,6.32
2023-01-09T22:33:35.774Z,6.28
2023-01-09T22:36:07.389Z,6.18
2023-01-09T22:38:34.383Z,6.27
2023-01-09T22:41:01.365Z,6.17
2023-01-09T22:43:29.074Z,6.02
2023-01-09T22:45:59.415Z,5.99
2023-01-09T22:48:26.169Z,5.87
2023-01-09T22:50:52.909Z,5.79
2023-01-09T22:53:21.047Z,5.80
2023-01-09T22:55:55.479Z,5.85
2023-01-09T22:58:22.482Z,5.92
2023-01-09T23:00:49.261Z,5.95
2023-01-09T23:03:15.990Z,6.03
2023-01-09T23:05:42.731Z,6.13
2023-01-09T23:08:09.601Z,6.14
2023-01-09T23:10:37.957Z,6.17
2023-01-09T23:13:04.897Z,6.18
2023-01-09T23:15:31.639Z,6.21
2023-01-09T23:17:59.306Z,6.23
2023-01-09T23:20:26.128Z,6.25
2023-01-09T23:22:52.988Z,6.25
2023-01-09T23:25:19.772Z,6.28
2023-01-09T23:27:48.020Z,6.36
2023-01-09T23:30:15.161Z,6.40
2023-01-09T23:32:41.985Z,6.34
2023-01-09T23:35:09.361Z,6.47
2023-01-09T23:37:36.068Z,6.48
2023-01-09T23:40:03.057Z,6.54
2023-01-09T23:42:29.745Z,6.56
2023-01-09T23:44:57.885Z,6.59
2023-01-09T23:47:24.596Z,6.54
2023-01-09T23:49:51.340Z,6.55
2023-01-09T23:52:18.114Z,6.53
2023-01-09T23:54:44.899Z,6.58
2023-01-09T23:57:11.595Z,6.59
2023-01-09T23:59:38.593Z,6.56
